Harvest Peace — V7VE7 — position and weather

sailwx.info

Track history (hours):
 
Tides and Currents Weather Stations Pressure Air Temp Water Temp Dewpoint Dewpoint Depression Visibility Wind Speed Wind Dir Waves Ship Positions

Harvest Peace

Last reported at 2018-Apr-05 22:06 UTC. Time now 2018-Apr-21 11:13 UTC.
Position N 29°01' E 032°47'.
Warning: this ship's position is 15 days out of date.

Length 225 m; draft 13 m.

Type: Cargo ship. MMSI: 538004103.

Date/timePositionNaut miles runAvg speedWind from/ knotsBaromVisibWave heightAir tempDewpointWater temp
2018-Apr-05 22:06N 29°01' E 032°47'312.1
2018-Apr-05 21:49N 29°05' E 032°46'611.9
2018-Apr-05 21:17N 29°11' E 032°44'138 7.6
2018-Apr-05 03:09N 31°27' E 032°18'0 0.0
2018-Apr-05 02:55N 31°27' E 032°18'0 0.0
2018-Apr-05 02:30N 31°27' E 032°18'0 0.0
2018-Apr-05 02:00N 31°27' E 032°18'0 0.0
2018-Apr-05 01:29N 31°27' E 032°18'0 0.0
2018-Apr-05 01:00N 31°27' E 032°18'0 0.0
2018-Apr-05 00:27N 31°27' E 032°18'0 0.0
2018-Apr-04 18:14N 31°27' E 032°18'0 0.0
2018-Apr-04 18:00N 31°27' E 032°18'0 0.0
2018-Apr-04 17:29N 31°27' E 032°18'0 0.0
2018-Apr-04 16:56N 31°27' E 032°18'0 0.0
2018-Apr-04 16:30N 31°27' E 032°18'  
2018-Apr-01 01:05N 36°22' E 014°46'1 9.6
2018-Apr-01 00:58N 36°23' E 014°45'912.3
2018-Apr-01 00:13N 36°26' E 014°34'210.5
2018-Apr-01 00:00N 36°26' E 014°31'611.8
2018-Mar-31 23:30N 36°28' E 014°24'612.0
2018-Mar-31 22:59N 36°30' E 014°17'612.0
2018-Mar-31 22:29N 36°32' E 014°10'611.9
2018-Mar-31 22:00N 36°34' E 014°03'  
2018-Mar-29 17:00N 36°42' E 000°41'1113.0
2018-Mar-29 16:09N 36°40' E 000°27'213.2
2018-Mar-29 16:00N 36°39' E 000°25'713.3
2018-Mar-29 15:29N 36°38' E 000°17'613.3
2018-Mar-29 15:00N 36°36' E 000°09'713.0
2018-Mar-29 14:30N 36°35' E 000°01'25212.8
2018-Mar-28 18:51N 36°01' W 005°09'513.5
2018-Mar-28 18:30N 36°00' W 005°15'713.9
2018-Mar-28 18:00N 35°58' W 005°23'13112.4
2018-Mar-28 07:27N 36°05' W 008°05'512.2
2018-Mar-28 07:00N 36°06' W 008°12'612.2
2018-Mar-28 06:30N 36°07' W 008°19'612.0
2018-Mar-28 06:00N 36°08' W 008°27'612.1
2018-Mar-28 05:30N 36°09' W 008°34'612.1
2018-Mar-28 05:00N 36°10' W 008°42'612.1
2018-Mar-28 04:30N 36°11' W 008°49'612.1
2018-Mar-28 04:00N 36°12' W 008°56'611.8
2018-Mar-28 03:30N 36°13' W 009°04'611.8
2018-Mar-28 03:00N 36°13' W 009°11'611.7
2018-Mar-28 02:30N 36°14' W 009°18'510.8
2018-Mar-28 02:00N 36°16' W 009°24'611.6
2018-Mar-28 01:30N 36°20' W 009°29'611.4
2018-Mar-28 01:00N 36°25' W 009°34'611.5
2018-Mar-28 00:30N 36°30' W 009°38'611.9
2018-Mar-28 00:00N 36°34' W 009°42'611.8
2018-Mar-27 23:30N 36°39' W 009°47'611.2
2018-Mar-27 23:00N 36°44' W 009°49'611.8
2018-Mar-27 22:30N 36°50' W 009°51'611.6
2018-Mar-27 22:00N 36°56' W 009°52'611.8
2018-Mar-27 21:30N 37°01' W 009°53'611.5
2018-Mar-27 21:00N 37°07' W 009°55'611.5
2018-Mar-27 20:30N 37°13' W 009°57'611.5
2018-Mar-27 20:00N 37°18' W 009°58'611.7
2018-Mar-27 19:30N 37°24' W 009°59'611.6
2018-Mar-27 19:00N 37°30' W 010°01'611.8
2018-Mar-27 18:30N 37°35' W 010°02'611.9
2018-Mar-27 18:00N 37°41' W 010°04'612.4
2018-Mar-27 17:30N 37°47' W 010°05'713.7
2018-Mar-27 17:00N 37°54' W 010°06'713.5
2018-Mar-27 16:30N 38°01' W 010°08'612.7
2018-Mar-27 16:00N 38°07' W 010°09'612.0
2018-Mar-27 15:30N 38°13' W 010°10'612.1
2018-Mar-27 15:00N 38°19' W 010°12'612.0
2018-Mar-27 14:30N 38°25' W 010°13'612.1
2018-Mar-27 14:00N 38°31' W 010°14'612.1
2018-Mar-27 13:30N 38°37' W 010°16'612.2
2018-Mar-27 13:00N 38°43' W 010°17'612.2
2018-Mar-27 12:30N 38°49' W 010°16'612.3
2018-Mar-27 12:00N 38°55' W 010°16'612.1
2018-Mar-27 11:30N 39°01' W 010°16'611.7
2018-Mar-27 11:00N 39°07' W 010°16'612.2
2018-Mar-27 10:30N 39°13' W 010°16'612.3
2018-Mar-27 10:00N 39°19' W 010°16'612.2
2018-Mar-27 09:30N 39°25' W 010°15'612.3
2018-Mar-27 09:00N 39°31' W 010°14'612.5
2018-Mar-27 08:30N 39°37' W 010°13'2012.3
2018-Mar-27 06:51N 39°58' W 010°12'  
Track history (hours):
 
Tides and Currents Weather Stations Pressure Air Temp Water Temp Dewpoint Dewpoint Depression Visibility Wind Speed Wind Dir Waves Ship Positions

Harvest Peace

Last reported at 2018-Apr-05 22:06 UTC. Time now 2018-Apr-21 11:13 UTC.
Position N 29°01' E 032°47'.
Warning: this ship's position is 15 days out of date.

Length 225 m; draft 13 m.

Type: Cargo ship. MMSI: 538004103.

Date/timePositionNaut miles runAvg speedWind from/ knotsBaromVisibWave heightAir tempDewpointWater temp
2018-Apr-05 22:06N 29°01' E 032°47'312.1
2018-Apr-05 21:49N 29°05' E 032°46'611.9
2018-Apr-05 21:17N 29°11' E 032°44'138 7.6
2018-Apr-05 03:09N 31°27' E 032°18'0 0.0
2018-Apr-05 02:55N 31°27' E 032°18'0 0.0
2018-Apr-05 02:30N 31°27' E 032°18'0 0.0
2018-Apr-05 02:00N 31°27' E 032°18'0 0.0
2018-Apr-05 01:29N 31°27' E 032°18'0 0.0
2018-Apr-05 01:00N 31°27' E 032°18'0 0.0
2018-Apr-05 00:27N 31°27' E 032°18'0 0.0
2018-Apr-04 18:14N 31°27' E 032°18'0 0.0
2018-Apr-04 18:00N 31°27' E 032°18'0 0.0
2018-Apr-04 17:29N 31°27' E 032°18'0 0.0
2018-Apr-04 16:56N 31°27' E 032°18'0 0.0
2018-Apr-04 16:30N 31°27' E 032°18'  
2018-Apr-01 01:05N 36°22' E 014°46'1 9.6
2018-Apr-01 00:58N 36°23' E 014°45'912.3
2018-Apr-01 00:13N 36°26' E 014°34'210.5
2018-Apr-01 00:00N 36°26' E 014°31'611.8
2018-Mar-31 23:30N 36°28' E 014°24'612.0
2018-Mar-31 22:59N 36°30' E 014°17'612.0
2018-Mar-31 22:29N 36°32' E 014°10'611.9
2018-Mar-31 22:00N 36°34' E 014°03'  
2018-Mar-29 17:00N 36°42' E 000°41'1113.0
2018-Mar-29 16:09N 36°40' E 000°27'213.2
2018-Mar-29 16:00N 36°39' E 000°25'713.3
2018-Mar-29 15:29N 36°38' E 000°17'613.3
2018-Mar-29 15:00N 36°36' E 000°09'713.0
2018-Mar-29 14:30N 36°35' E 000°01'25212.8
2018-Mar-28 18:51N 36°01' W 005°09'513.5
2018-Mar-28 18:30N 36°00' W 005°15'713.9
2018-Mar-28 18:00N 35°58' W 005°23'13112.4
2018-Mar-28 07:27N 36°05' W 008°05'512.2
2018-Mar-28 07:00N 36°06' W 008°12'612.2
2018-Mar-28 06:30N 36°07' W 008°19'612.0
2018-Mar-28 06:00N 36°08' W 008°27'612.1
2018-Mar-28 05:30N 36°09' W 008°34'612.1
2018-Mar-28 05:00N 36°10' W 008°42'612.1
2018-Mar-28 04:30N 36°11' W 008°49'612.1
2018-Mar-28 04:00N 36°12' W 008°56'611.8
2018-Mar-28 03:30N 36°13' W 009°04'611.8
2018-Mar-28 03:00N 36°13' W 009°11'611.7
2018-Mar-28 02:30N 36°14' W 009°18'510.8
2018-Mar-28 02:00N 36°16' W 009°24'611.6
2018-Mar-28 01:30N 36°20' W 009°29'611.4
2018-Mar-28 01:00N 36°25' W 009°34'611.5
2018-Mar-28 00:30N 36°30' W 009°38'611.9
2018-Mar-28 00:00N 36°34' W 009°42'611.8
2018-Mar-27 23:30N 36°39' W 009°47'611.2
2018-Mar-27 23:00N 36°44' W 009°49'611.8
2018-Mar-27 22:30N 36°50' W 009°51'611.6
2018-Mar-27 22:00N 36°56' W 009°52'611.8
2018-Mar-27 21:30N 37°01' W 009°53'611.5
2018-Mar-27 21:00N 37°07' W 009°55'611.5
2018-Mar-27 20:30N 37°13' W 009°57'611.5
2018-Mar-27 20:00N 37°18' W 009°58'611.7
2018-Mar-27 19:30N 37°24' W 009°59'611.6
2018-Mar-27 19:00N 37°30' W 010°01'611.8
2018-Mar-27 18:30N 37°35' W 010°02'611.9
2018-Mar-27 18:00N 37°41' W 010°04'612.4
2018-Mar-27 17:30N 37°47' W 010°05'713.7
2018-Mar-27 17:00N 37°54' W 010°06'713.5
2018-Mar-27 16:30N 38°01' W 010°08'612.7
2018-Mar-27 16:00N 38°07' W 010°09'612.0
2018-Mar-27 15:30N 38°13' W 010°10'612.1
2018-Mar-27 15:00N 38°19' W 010°12'612.0
2018-Mar-27 14:30N 38°25' W 010°13'612.1
2018-Mar-27 14:00N 38°31' W 010°14'612.1
2018-Mar-27 13:30N 38°37' W 010°16'612.2
2018-Mar-27 13:00N 38°43' W 010°17'612.2
2018-Mar-27 12:30N 38°49' W 010°16'612.3
2018-Mar-27 12:00N 38°55' W 010°16'612.1
2018-Mar-27 11:30N 39°01' W 010°16'611.7
2018-Mar-27 11:00N 39°07' W 010°16'612.2
2018-Mar-27 10:30N 39°13' W 010°16'612.3
2018-Mar-27 10:00N 39°19' W 010°16'612.2
2018-Mar-27 09:30N 39°25' W 010°15'612.3
2018-Mar-27 09:00N 39°31' W 010°14'612.5
2018-Mar-27 08:30N 39°37' W 010°13'2012.3
2018-Mar-27 06:51N 39°58' W 010°12'  

Dump ship's entire track history